Terminal Aerodrome Forecast
Issued by NWS

Home | Current Version | Previous Version | Text Only | Print | Product List | Glossary On
Versions: 1 2 3 4 5 6 7 8 9 10 11 12 13 14 15 16 17 18 19 20 21 22 23
000
FTUS43 KDVN 251400 AAB
TAFBRL
TAF AMD
KBRL 251429Z 2515/2612 29010KT 4SM BR OVC006
      TEMPO 2514/2516 2SM BR OVC004
     FM251600 28012KT 5SM BR OVC008
     FM251900 30012KT P6SM OVC015
     FM252200 31010G20KT P6SM SCT020 BKN050 PROB30 2522/2601 -SHRA
      BKN025
     FM260100 34012KT P6SM BKN050=

USA.gov is the U.S. government's official web portal to all federal, state and local government web resources and services.